Terminal Aerodrome Forecast
Issued by NWS Sterling, VA

Current Version | Previous Version | Text Only | Print | Product List | Glossary Off
Versions: 1 2 3 4 5 6 7 8 9 10 11 12 13 14 15 16 17 18 19 20 21 22 23 24 25 26 27 28 29

944
FTUS41 KLWX 181135
TAFIAD
TAF
KIAD 181135Z 1812/1918 36004KT 2SM BR BKN002
     FM181230 31007KT P6SM SCT015 BKN040
     FM181600 31013G22KT P6SM BKN040
     FM182200 32010KT P6SM SCT050
     FM190000 32006KT P6SM SCT060
     FM190800 00000KT P6SM SCT060=

USA.gov is the U.S. government's official web portal to all federal, state and local government web resources and services.